Coopersville, New York
Current Conditions -  °F | °C
As of 9:35 AM on Sunday 21 Dec 2014 (Local Time) from KFSO Reporting Station
Haze Haze  
Wind Chill: 16°   Ceiling: 500
Heat Index: 16°   Visibility: 2mi
Dew Point: 14°   Wind: 0mph
Humidity: 92%   Direction: NA
Pressure: 30.38"   Gusts: NA
Location:  44.9684°N, 73.45°W
Report Text: KFSO 211435Z AUTO 00000KT 2SM BR OVC005 M09/M10 A3038 RMK AO2 T10891100
Loading
Personal Weather Stations






























Interactive Weather Map New forecast layout! Learn more

10-Day Weather Forecast

Advertisements
Track Severe Weather on mobile